Time;durP1;ratioP1;P1;durP2;ratioP2;P2;SDS_P1;SDS_P2;PMS_P1;PMS_P2;Temp;Humidity;BMP_temperature;BMP_pressure;BME280_temperature;BME280_humidity;BME280_pressure;Samples;Min_cycle;Max_cycle;Signal;HPM_P1;HPM_P2
2022/07/08 00:00:54;;;;;;;9.98;1.50;;;;;;;;;;5032756;28;20675;-63
2022/07/08 00:03:20;;;;;;;7.55;1.60;;;;;;;;;;5033160;28;20219;-64
2022/07/08 00:05:45;;;;;;;8.30;1.35;;;;;;;;;;5033887;28;20643;-65
2022/07/08 00:08:10;;;;;;;5.85;1.20;;;;;;;;;;5015014;28;20630;-64
2022/07/08 00:10:36;;;;;;;6.75;1.10;;;;;;;;;;5021987;28;20214;-64
2022/07/08 00:13:01;;;;;;;9.32;1.65;;;;;;;;;;5008542;28;20307;-65
2022/07/08 00:15:26;;;;;;;9.13;1.30;;;;;;;;;;5003318;28;20212;-64
2022/07/08 00:17:52;;;;;;;10.50;1.30;;;;;;;;;;5022805;28;20219;-64
2022/07/08 00:20:17;;;;;;;4.88;1.15;;;;;;;;;;5022826;28;20208;-63
2022/07/08 00:22:42;;;;;;;6.78;1.58;;;;;;;;;;5008244;28;20231;-63
2022/07/08 00:25:08;;;;;;;5.95;1.25;;;;;;;;;;5003753;28;20212;-64
2022/07/08 00:27:33;;;;;;;7.30;1.30;;;;;;;;;;5014596;28;20757;-63
2022/07/08 00:29:58;;;;;;;7.10;1.30;;;;;;;;;;5015236;28;20715;-63
2022/07/08 00:32:24;;;;;;;7.43;1.42;;;;;;;;;;5002673;28;20231;-63
2022/07/08 00:34:49;;;;;;;8.02;1.17;;;;;;;;;;5002838;28;20208;-63
2022/07/08 00:37:14;;;;;;;7.00;1.27;;;;;;;;;;5002506;28;20220;-64
2022/07/08 00:39:40;;;;;;;6.65;1.83;;;;;;;;;;5003192;28;20263;-63
2022/07/08 00:42:05;;;;;;;8.05;1.30;;;;;;;;;;5009638;28;20326;-64
2022/07/08 00:44:31;;;;;;;7.40;1.67;;;;;;;;;;5007237;28;20220;-64
2022/07/08 00:46:56;;;;;;;5.95;1.10;;;;;;;;;;4994990;28;20262;-63
2022/07/08 00:49:21;;;;;;;6.53;1.40;;;;;;;;;;4993921;28;20809;-64
2022/07/08 00:51:47;;;;;;;5.75;1.10;;;;;;;;;;4999729;28;20240;-64
2022/07/08 00:54:12;;;;;;;9.15;1.50;;;;;;;;;;5002150;28;20255;-64
2022/07/08 00:56:37;;;;;;;10.90;1.40;;;;;;;;;;5002014;28;20212;-64
2022/07/08 00:59:03;;;;;;;8.07;1.10;;;;;;;;;;5003566;28;20500;-64
2022/07/08 01:01:28;;;;;;;4.72;1.17;;;;;;;;;;5000605;28;20220;-64
2022/07/08 01:03:53;;;;;;;9.27;1.73;;;;;;;;;;5001764;28;20588;-64
2022/07/08 01:06:19;;;;;;;6.68;1.30;;;;;;;;;;4981764;28;20462;-64
2022/07/08 01:08:44;;;;;;;7.47;1.23;;;;;;;;;;4975653;28;20279;-64
2022/07/08 01:11:10;;;;;;;10.63;1.73;;;;;;;;;;4993416;28;20224;-64
2022/07/08 01:13:36;;;;;;;6.82;1.17;;;;;;;;;;4995913;28;20220;-64
2022/07/08 01:16:02;;;;;;;8.52;1.30;;;;;;;;;;4995277;28;20217;-64
2022/07/08 01:18:28;;;;;;;7.55;1.17;;;;;;;;;;4981929;28;20217;-64
2022/07/08 01:20:53;;;;;;;8.85;1.48;;;;;;;;;;5002044;28;20216;-64
2022/07/08 01:23:18;;;;;;;8.43;1.50;;;;;;;;;;5001251;28;20213;-64
2022/07/08 01:25:44;;;;;;;9.27;1.40;;;;;;;;;;5001547;28;20204;-63
2022/07/08 01:28:09;;;;;;;9.32;1.45;;;;;;;;;;5001661;28;21051;-64
2022/07/08 01:30:34;;;;;;;7.78;1.35;;;;;;;;;;4984848;28;20213;-64
2022/07/08 01:33:00;;;;;;;10.57;1.45;;;;;;;;;;4974275;28;20224;-64
2022/07/08 01:35:25;;;;;;;5.30;1.25;;;;;;;;;;4993617;28;20204;-64
2022/07/08 01:37:50;;;;;;;6.40;1.13;;;;;;;;;;5001199;28;20308;-63
2022/07/08 01:40:16;;;;;;;6.25;1.42;;;;;;;;;;5001053;28;20243;-64
2022/07/08 01:42:41;;;;;;;7.03;1.30;;;;;;;;;;5021860;28;20580;-64
2022/07/08 01:45:06;;;;;;;6.28;1.20;;;;;;;;;;5005444;28;20586;-63
2022/07/08 01:47:32;;;;;;;8.63;1.27;;;;;;;;;;5001877;28;20274;-64
2022/07/08 01:49:57;;;;;;;8.27;1.40;;;;;;;;;;5001609;28;20222;-64
2022/07/08 01:52:22;;;;;;;6.40;1.50;;;;;;;;;;4996362;28;20232;-64
2022/07/08 01:54:48;;;;;;;6.63;1.15;;;;;;;;;;5013220;28;20246;-64
2022/07/08 01:57:14;;;;;;;7.20;1.40;;;;;;;;;;5012213;28;21318;-64
2022/07/08 01:59:40;;;;;;;7.18;1.33;;;;;;;;;;4999344;28;20719;-64
2022/07/08 02:02:05;;;;;;;7.72;1.50;;;;;;;;;;5010668;28;20227;-64
2022/07/08 02:04:30;;;;;;;10.02;1.38;;;;;;;;;;5021311;28;20223;-64
2022/07/08 02:06:56;;;;;;;6.25;1.20;;;;;;;;;;5020544;28;20235;-64
2022/07/08 02:09:21;;;;;;;8.25;1.30;;;;;;;;;;5040283;28;20709;-64
2022/07/08 02:14:30;;;;;;;11.32;1.80;;;;;;;;;;5021490;28;20839;-64
2022/07/08 02:16:56;;;;;;;8.75;1.50;;;;;;;;;;5018977;28;20477;-64
2022/07/08 02:19:21;;;;;;;5.05;1.20;;;;;;;;;;5012659;28;20266;-64
2022/07/08 02:21:46;;;;;;;7.07;1.40;;;;;;;;;;5015452;28;20231;-64
2022/07/08 02:24:13;;;;;;;8.68;1.30;;;;;;;;;;5021117;28;20241;-64
2022/07/08 02:26:39;;;;;;;7.65;1.42;;;;;;;;;;5021715;28;20235;-64
2022/07/08 02:29:04;;;;;;;7.28;1.38;;;;;;;;;;5020191;28;20756;-64
2022/07/08 02:31:30;;;;;;;9.43;1.40;;;;;;;;;;5021665;28;20301;-64
2022/07/08 02:33:55;;;;;;;8.05;1.63;;;;;;;;;;5021637;28;20302;-64
2022/07/08 02:36:20;;;;;;;6.35;1.13;;;;;;;;;;5019529;28;20224;-64
2022/07/08 02:38:46;;;;;;;7.60;1.30;;;;;;;;;;5010660;28;20294;-64
2022/07/08 02:41:11;;;;;;;10.32;1.40;;;;;;;;;;5012904;28;20215;-65
2022/07/08 02:43:36;;;;;;;7.57;1.58;;;;;;;;;;5012955;28;20215;-64
2022/07/08 02:46:01;;;;;;;7.88;1.63;;;;;;;;;;5020695;28;20452;-65
2022/07/08 02:48:27;;;;;;;5.28;1.40;;;;;;;;;;5019910;28;20208;-64
2022/07/08 02:50:52;;;;;;;7.22;1.50;;;;;;;;;;5020948;28;20211;-63
2022/07/08 02:53:17;;;;;;;7.45;1.27;;;;;;;;;;5020261;28;21064;-64
2022/07/08 02:55:43;;;;;;;7.22;1.23;;;;;;;;;;5020351;28;20216;-64
2022/07/08 02:58:08;;;;;;;5.50;1.30;;;;;;;;;;5020104;28;20988;-64
2022/07/08 03:00:33;;;;;;;6.35;1.40;;;;;;;;;;5015261;28;20207;-64
2022/07/08 03:02:59;;;;;;;6.93;1.50;;;;;;;;;;5011922;28;20319;-64
2022/07/08 03:05:24;;;;;;;7.25;1.35;;;;;;;;;;5012408;28;20219;-64
2022/07/08 03:07:49;;;;;;;8.60;1.20;;;;;;;;;;5019154;28;20299;-64
2022/07/08 03:10:15;;;;;;;11.45;1.67;;;;;;;;;;5022848;28;20265;-64
2022/07/08 03:12:40;;;;;;;7.00;1.50;;;;;;;;;;5024672;28;20232;-64
2022/07/08 03:15:05;;;;;;;7.05;1.27;;;;;;;;;;5023885;28;20215;-64
2022/07/08 03:17:31;;;;;;;8.65;1.50;;;;;;;;;;5042094;28;20639;-62
2022/07/08 03:19:56;;;;;;;11.18;1.70;;;;;;;;;;5043724;28;20234;-63
2022/07/08 03:22:21;;;;;;;11.38;1.60;;;;;;;;;;5040543;28;20724;-63
2022/07/08 03:24:46;;;;;;;8.32;1.60;;;;;;;;;;5035529;28;20211;-63
2022/07/08 03:27:12;;;;;;;7.60;1.50;;;;;;;;;;5035530;28;20226;-63
2022/07/08 03:29:37;;;;;;;5.88;1.58;;;;;;;;;;5035473;28;20749;-63
2022/07/08 03:32:03;;;;;;;8.93;1.35;;;;;;;;;;5022729;28;20231;-63
2022/07/08 03:34:28;;;;;;;6.30;1.85;;;;;;;;;;5023983;28;20219;-63
2022/07/08 03:36:53;;;;;;;8.23;1.80;;;;;;;;;;5024317;28;20210;-63
2022/07/08 03:39:19;;;;;;;10.85;1.77;;;;;;;;;;5022582;28;20219;-64
2022/07/08 03:41:44;;;;;;;7.53;1.30;;;;;;;;;;5023562;28;20595;-62
2022/07/08 03:44:09;;;;;;;12.43;1.50;;;;;;;;;;5022931;28;20682;-62
2022/07/08 03:46:35;;;;;;;8.90;1.30;;;;;;;;;;5015700;28;20310;-62
2022/07/08 03:49:00;;;;;;;7.63;1.70;;;;;;;;;;5015915;28;20224;-62
2022/07/08 03:51:25;;;;;;;6.40;1.60;;;;;;;;;;5004192;28;20216;-62
2022/07/08 03:53:51;;;;;;;9.55;1.50;;;;;;;;;;5011542;28;20679;-62
2022/07/08 03:56:16;;;;;;;10.20;1.60;;;;;;;;;;5022694;28;20288;-63
2022/07/08 03:58:41;;;;;;;5.97;1.42;;;;;;;;;;5023048;28;20219;-63
2022/07/08 04:01:06;;;;;;;8.23;1.42;;;;;;;;;;5021427;28;20220;-62
2022/07/08 04:03:32;;;;;;;7.10;1.50;;;;;;;;;;5023575;28;20261;-62
2022/07/08 04:05:57;;;;;;;5.47;1.42;;;;;;;;;;5004694;28;20204;-62
2022/07/08 04:08:23;;;;;;;9.60;2.03;;;;;;;;;;5016911;28;20594;-62
2022/07/08 04:10:48;;;;;;;9.20;1.70;;;;;;;;;;5015332;28;20502;-63
2022/07/08 04:13:13;;;;;;;8.25;1.75;;;;;;;;;;5014148;28;20246;-62
2022/07/08 04:15:38;;;;;;;8.68;1.75;;;;;;;;;;5017416;28;20674;-62
2022/07/08 04:18:04;;;;;;;9.18;1.75;;;;;;;;;;5003174;28;20217;-61
2022/07/08 04:20:29;;;;;;;7.93;1.77;;;;;;;;;;5000555;28;20431;-63
2022/07/08 04:22:54;;;;;;;9.68;2.10;;;;;;;;;;5003484;28;20219;-66
2022/07/08 04:25:20;;;;;;;10.90;1.60;;;;;;;;;;5003641;28;20220;-66
2022/07/08 04:27:45;;;;;;;8.50;2.13;;;;;;;;;;5002867;28;20227;-72
2022/07/08 04:30:10;;;;;;;8.68;1.50;;;;;;;;;;5000676;28;20737;-70
2022/07/08 04:32:36;;;;;;;7.45;1.73;;;;;;;;;;5013356;28;20268;-70
2022/07/08 04:35:01;;;;;;;10.48;1.75;;;;;;;;;;5028197;28;20224;-67
2022/07/08 04:37:26;;;;;;;7.00;1.60;;;;;;;;;;5035303;28;20624;-69
2022/07/08 04:39:52;;;;;;;7.25;1.60;;;;;;;;;;5042395;28;20208;-69
2022/07/08 04:42:17;;;;;;;7.43;1.52;;;;;;;;;;5040508;28;20203;-70
2022/07/08 04:44:43;;;;;;;9.77;1.88;;;;;;;;;;5044098;28;20571;-68
2022/07/08 04:47:08;;;;;;;11.75;1.70;;;;;;;;;;5042407;28;20199;-69
2022/07/08 04:49:33;;;;;;;9.35;1.90;;;;;;;;;;5041528;28;20212;-68
2022/07/08 04:51:59;;;;;;;6.90;1.50;;;;;;;;;;5041476;28;20233;-67
2022/07/08 04:54:24;;;;;;;11.10;1.70;;;;;;;;;;5042820;28;20337;-69
2022/07/08 04:56:49;;;;;;;10.38;2.08;;;;;;;;;;5041294;28;20579;-68
2022/07/08 04:59:14;;;;;;;8.27;2.10;;;;;;;;;;5041197;28;20568;-71
2022/07/08 05:01:40;;;;;;;9.75;1.85;;;;;;;;;;5037429;28;20236;-70
2022/07/08 05:04:05;;;;;;;8.80;1.60;;;;;;;;;;5031519;28;20211;-69
2022/07/08 05:06:31;;;;;;;9.13;1.73;;;;;;;;;;5046355;28;20264;-69
2022/07/08 05:08:56;;;;;;;9.00;1.92;;;;;;;;;;5052473;28;20203;-65
2022/07/08 05:11:21;;;;;;;10.07;1.60;;;;;;;;;;5050487;28;20214;-65
2022/07/08 05:13:47;;;;;;;7.68;1.63;;;;;;;;;;5040123;28;20219;-65
2022/07/08 05:16:12;;;;;;;9.25;2.03;;;;;;;;;;5050193;28;20609;-65
2022/07/08 05:18:39;;;;;;;9.85;2.00;;;;;;;;;;5052267;28;20561;-65
2022/07/08 05:21:05;;;;;;;15.18;2.30;;;;;;;;;;5051815;28;20215;-65
2022/07/08 05:23:30;;;;;;;8.75;1.60;;;;;;;;;;5051589;28;20540;-65
2022/07/08 05:25:55;;;;;;;7.35;1.77;;;;;;;;;;5052296;28;20700;-67
2022/07/08 05:28:20;;;;;;;10.88;2.08;;;;;;;;;;5051581;28;20207;-65
2022/07/08 05:30:46;;;;;;;9.60;1.85;;;;;;;;;;5050891;28;20210;-65
2022/07/08 05:33:11;;;;;;;7.50;1.73;;;;;;;;;;5042856;28;20223;-65
2022/07/08 05:35:36;;;;;;;10.93;1.63;;;;;;;;;;5051813;28;20210;-65
2022/07/08 05:38:02;;;;;;;9.98;2.38;;;;;;;;;;5041853;28;20261;-65
2022/07/08 05:40:27;;;;;;;7.50;1.70;;;;;;;;;;5042448;28;20317;-65
2022/07/08 05:42:52;;;;;;;9.32;1.45;;;;;;;;;;5048895;28;20210;-65
2022/07/08 05:45:18;;;;;;;10.73;1.65;;;;;;;;;;5047571;28;20215;-64
2022/07/08 05:47:43;;;;;;;9.68;1.70;;;;;;;;;;5031902;28;20207;-64
2022/07/08 05:50:08;;;;;;;6.93;1.40;;;;;;;;;;5031208;28;20223;-64
2022/07/08 05:52:34;;;;;;;9.65;1.65;;;;;;;;;;5030960;28;20226;-64
2022/07/08 05:54:59;;;;;;;10.65;1.73;;;;;;;;;;5031910;28;20247;-64
2022/07/08 05:57:24;;;;;;;8.80;1.70;;;;;;;;;;5031389;28;20642;-64
2022/07/08 05:59:51;;;;;;;7.88;1.45;;;;;;;;;;5030699;28;20236;-65
2022/07/08 06:02:17;;;;;;;10.90;1.50;;;;;;;;;;5030933;28;20231;-65
2022/07/08 06:04:42;;;;;;;8.32;1.65;;;;;;;;;;5031655;28;20215;-64
2022/07/08 06:07:07;;;;;;;7.80;1.60;;;;;;;;;;5030544;28;20745;-64
2022/07/08 06:09:33;;;;;;;7.18;1.33;;;;;;;;;;5031617;28;20208;-64
2022/07/08 06:11:58;;;;;;;8.90;1.70;;;;;;;;;;5047742;28;20649;-65
2022/07/08 06:14:23;;;;;;;13.18;1.70;;;;;;;;;;5040953;28;20624;-64
2022/07/08 06:16:48;;;;;;;10.57;1.80;;;;;;;;;;5051279;28;20211;-64
2022/07/08 06:19:14;;;;;;;14.82;1.83;;;;;;;;;;5050484;28;20302;-64
2022/07/08 06:21:39;;;;;;;8.80;1.60;;;;;;;;;;5032771;28;20685;-64
2022/07/08 06:24:05;;;;;;;8.75;1.70;;;;;;;;;;5051161;28;20219;-64
2022/07/08 06:26:30;;;;;;;8.35;1.42;;;;;;;;;;5050694;28;20207;-64
2022/07/08 06:28:56;;;;;;;7.70;1.48;;;;;;;;;;5051094;28;20210;-64
2022/07/08 06:31:21;;;;;;;11.60;1.60;;;;;;;;;;5050231;28;20210;-64
2022/07/08 06:33:46;;;;;;;12.73;1.73;;;;;;;;;;5050409;28;20572;-64
2022/07/08 06:36:11;;;;;;;7.75;1.77;;;;;;;;;;5050677;28;20276;-64
2022/07/08 06:38:37;;;;;;;13.32;1.63;;;;;;;;;;5051219;28;20215;-64
2022/07/08 06:41:02;;;;;;;10.45;1.73;;;;;;;;;;5049945;28;20218;-64
2022/07/08 06:43:27;;;;;;;8.90;1.52;;;;;;;;;;5051890;28;20712;-64
2022/07/08 06:45:53;;;;;;;9.15;1.70;;;;;;;;;;5036746;28;20281;-64
2022/07/08 06:48:18;;;;;;;11.38;1.50;;;;;;;;;;5030101;28;20350;-64
2022/07/08 06:50:43;;;;;;;10.02;1.70;;;;;;;;;;5055011;28;20543;-64
2022/07/08 06:53:08;;;;;;;8.75;1.88;;;;;;;;;;5054802;28;20272;-65
2022/07/08 06:55:34;;;;;;;8.63;1.48;;;;;;;;;;5048222;28;20236;-64
2022/07/08 06:57:59;;;;;;;9.00;1.65;;;;;;;;;;5044641;28;20682;-64
2022/07/08 07:00:24;;;;;;;6.78;1.60;;;;;;;;;;5044463;28;20211;-64
2022/07/08 07:02:50;;;;;;;9.35;1.50;;;;;;;;;;5045012;28;20215;-64
2022/07/08 07:05:15;;;;;;;9.77;1.40;;;;;;;;;;5054153;28;20313;-64
2022/07/08 07:07:40;;;;;;;8.02;1.45;;;;;;;;;;5054883;28;20214;-64
2022/07/08 07:10:06;;;;;;;9.65;1.40;;;;;;;;;;5053478;28;20695;-65
2022/07/08 07:12:31;;;;;;;10.90;1.60;;;;;;;;;;5054371;28;20235;-65
2022/07/08 07:14:57;;;;;;;8.32;1.50;;;;;;;;;;5054560;28;20570;-64
2022/07/08 07:17:22;;;;;;;9.93;1.23;;;;;;;;;;5052924;28;20289;-64
2022/07/08 07:19:48;;;;;;;8.27;1.70;;;;;;;;;;5051218;28;20210;-65
2022/07/08 07:22:13;;;;;;;12.60;1.50;;;;;;;;;;5044565;28;20298;-66
2022/07/08 07:24:38;;;;;;;10.90;1.50;;;;;;;;;;5051612;28;20268;-67
2022/07/08 07:27:04;;;;;;;12.15;1.50;;;;;;;;;;5053884;28;20577;-65
2022/07/08 07:29:29;;;;;;;11.07;1.60;;;;;;;;;;5053898;28;20718;-65
2022/07/08 07:31:54;;;;;;;10.65;1.70;;;;;;;;;;5053384;28;20230;-65
2022/07/08 07:34:20;;;;;;;11.00;1.55;;;;;;;;;;5053676;28;20225;-65
2022/07/08 07:36:45;;;;;;;10.82;1.60;;;;;;;;;;5053813;28;20207;-65
2022/07/08 07:39:10;;;;;;;8.15;1.48;;;;;;;;;;5053512;28;20215;-65
2022/07/08 07:41:36;;;;;;;6.68;1.15;;;;;;;;;;5054067;28;20207;-65
2022/07/08 07:44:02;;;;;;;11.63;1.45;;;;;;;;;;5052642;28;20205;-65
2022/07/08 07:46:27;;;;;;;5.93;1.10;;;;;;;;;;5042121;28;20290;-64
2022/07/08 07:48:53;;;;;;;9.35;1.77;;;;;;;;;;5033818;28;20203;-65
2022/07/08 07:51:18;;;;;;;11.52;1.88;;;;;;;;;;5032769;28;20399;-65
2022/07/08 07:53:43;;;;;;;9.00;1.98;;;;;;;;;;5034019;28;20697;-65
2022/07/08 07:56:09;;;;;;;10.63;1.60;;;;;;;;;;5033428;28;20235;-65
2022/07/08 07:58:34;;;;;;;5.78;1.20;;;;;;;;;;5033289;28;20222;-65
2022/07/08 08:00:59;;;;;;;11.95;1.50;;;;;;;;;;5024396;28;20606;-66
2022/07/08 08:03:25;;;;;;;10.75;2.00;;;;;;;;;;5033209;28;20215;-66
2022/07/08 08:05:51;;;;;;;12.00;1.42;;;;;;;;;;5032556;28;20654;-67
2022/07/08 08:08:17;;;;;;;6.63;1.30;;;;;;;;;;5019579;28;20223;-66
2022/07/08 08:10:42;;;;;;;7.88;1.58;;;;;;;;;;5013912;28;20204;-67
2022/07/08 08:13:09;;;;;;;6.50;1.33;;;;;;;;;;5012822;28;20220;-66
2022/07/08 08:15:34;;;;;;;9.00;1.50;;;;;;;;;;5013890;28;20230;-66
2022/07/08 08:18:00;;;;;;;8.77;1.40;;;;;;;;;;5013470;28;20726;-67
2022/07/08 08:20:25;;;;;;;10.80;1.48;;;;;;;;;;5012228;28;20208;-66
2022/07/08 08:22:51;;;;;;;7.70;1.48;;;;;;;;;;5013720;28;20270;-66
2022/07/08 08:25:17;;;;;;;8.23;1.30;;;;;;;;;;5013348;28;20222;-66
2022/07/08 08:27:42;;;;;;;8.73;1.35;;;;;;;;;;5013302;28;20208;-66
2022/07/08 08:30:08;;;;;;;8.23;1.17;;;;;;;;;;5019973;28;20212;-66
2022/07/08 08:32:33;;;;;;;6.50;1.40;;;;;;;;;;5033111;28;20315;-66
2022/07/08 08:34:58;;;;;;;7.55;1.30;;;;;;;;;;5048592;28;20743;-66
2022/07/08 08:37:24;;;;;;;10.52;1.23;;;;;;;;;;5052525;28;20232;-66
2022/07/08 08:39:50;;;;;;;8.57;1.88;;;;;;;;;;5052985;28;20665;-66
2022/07/08 08:42:15;;;;;;;5.75;1.38;;;;;;;;;;5051815;28;20737;-66
2022/07/08 08:44:41;;;;;;;12.40;1.42;;;;;;;;;;5047389;28;20220;-66
2022/07/08 08:47:06;;;;;;;9.63;1.45;;;;;;;;;;5040229;28;20706;-66
2022/07/08 08:49:32;;;;;;;8.63;1.60;;;;;;;;;;5014901;28;20208;-67
2022/07/08 08:51:58;;;;;;;8.02;1.48;;;;;;;;;;5032630;28;20246;-66
2022/07/08 08:54:23;;;;;;;9.05;1.45;;;;;;;;;;5031765;28;20671;-66
2022/07/08 08:56:48;;;;;;;10.13;1.65;;;;;;;;;;5015275;28;20212;-66
2022/07/08 08:59:15;;;;;;;6.35;1.13;;;;;;;;;;5032397;28;20200;-66
2022/07/08 09:01:40;;;;;;;6.13;1.15;;;;;;;;;;5031752;28;20235;-66
2022/07/08 09:04:10;;;;;;;7.13;1.40;;;;;;;;;;5031874;28;20216;-66
2022/07/08 09:06:36;;;;;;;8.93;1.35;;;;;;;;;;5031898;28;20208;-66
2022/07/08 09:09:02;;;;;;;7.13;1.48;;;;;;;;;;5031457;28;20307;-66
2022/07/08 09:11:27;;;;;;;6.57;1.20;;;;;;;;;;5032573;28;20295;-66
2022/07/08 09:14:11;;;;;;;7.90;1.38;;;;;;;;;;5032584;28;20228;-66
2022/07/08 09:16:36;;;;;;;7.70;1.40;;;;;;;;;;5037886;28;20211;-66
2022/07/08 09:19:11;;;;;;;7.45;1.40;;;;;;;;;;5022078;28;20583;-66
2022/07/08 09:21:36;;;;;;;7.68;1.40;;;;;;;;;;5032444;28;20211;-66
2022/07/08 09:24:15;;;;;;;9.27;1.42;;;;;;;;;;5031334;28;20310;-66
2022/07/08 09:26:41;;;;;;;9.82;1.67;;;;;;;;;;5032128;28;20729;-66
2022/07/08 09:29:07;;;;;;;8.70;1.60;;;;;;;;;;5013648;28;20216;-66
2022/07/08 09:31:33;;;;;;;7.07;1.75;;;;;;;;;;5031358;28;20235;-66
2022/07/08 09:34:04;;;;;;;9.35;1.65;;;;;;;;;;5032189;28;20743;-66
2022/07/08 09:36:30;;;;;;;9.30;1.40;;;;;;;;;;5051167;28;20199;-66
2022/07/08 09:38:55;;;;;;;7.05;1.42;;;;;;;;;;5033955;28;20670;-66
2022/07/08 09:41:20;;;;;;;8.63;1.80;;;;;;;;;;5033415;28;20211;-66
2022/07/08 09:43:46;;;;;;;9.20;1.73;;;;;;;;;;5050794;28;20220;-66
2022/07/08 09:46:12;;;;;;;8.90;1.70;;;;;;;;;;5033151;28;20222;-66
2022/07/08 09:48:37;;;;;;;7.13;1.50;;;;;;;;;;5031923;28;20253;-66
2022/07/08 09:51:08;;;;;;;5.57;2.15;;;;;;;;;;5030853;28;20306;-66
2022/07/08 09:53:34;;;;;;;5.47;1.30;;;;;;;;;;5031973;28;20231;-64
2022/07/08 09:56:00;;;;;;;4.50;1.02;;;;;;;;;;5031814;28;20212;-64
2022/07/08 09:58:26;;;;;;;5.00;1.20;;;;;;;;;;5030261;28;20298;-66
2022/07/08 10:00:53;;;;;;;6.45;1.00;;;;;;;;;;5031589;28;20742;-66
2022/07/08 10:03:18;;;;;;;4.80;1.08;;;;;;;;;;5031055;28;20334;-66
2022/07/08 10:05:44;;;;;;;9.88;1.50;;;;;;;;;;5031075;28;20204;-63
2022/07/08 10:08:09;;;;;;;5.90;1.20;;;;;;;;;;5031335;28;20222;-63
2022/07/08 10:10:35;;;;;;;7.70;1.42;;;;;;;;;;5031337;28;20220;-65
2022/07/08 10:13:00;;;;;;;8.52;1.50;;;;;;;;;;5030512;28;20220;-65
2022/07/08 10:15:26;;;;;;;8.20;1.52;;;;;;;;;;5050774;28;20215;-66
2022/07/08 10:17:51;;;;;;;5.07;1.40;;;;;;;;;;5050332;28;20211;-66
2022/07/08 10:20:17;;;;;;;4.97;1.20;;;;;;;;;;5050156;28;20666;-65
2022/07/08 10:22:44;;;;;;;7.22;1.20;;;;;;;;;;5033729;28;20302;-65
2022/07/08 10:25:09;;;;;;;4.65;1.20;;;;;;;;;;5032716;28;20233;-65
2022/07/08 10:27:36;;;;;;;9.75;1.40;;;;;;;;;;5050515;28;20210;-66
2022/07/08 10:30:14;;;;;;;4.75;1.10;;;;;;;;;;5050099;28;20691;-66
2022/07/08 10:32:40;;;;;;;8.57;1.75;;;;;;;;;;5050570;28;20233;-66
2022/07/08 10:35:08;;;;;;;6.45;1.48;;;;;;;;;;5050752;28;20211;-65
2022/07/08 10:37:45;;;;;;;8.57;1.60;;;;;;;;;;5051025;28;20211;-66
2022/07/08 10:40:11;;;;;;;8.82;1.83;;;;;;;;;;5049522;28;20210;-66
2022/07/08 10:42:36;;;;;;;7.75;1.80;;;;;;;;;;5050901;28;20218;-65
2022/07/08 10:45:02;;;;;;;9.18;1.52;;;;;;;;;;5050377;28;20233;-66
2022/07/08 10:47:29;;;;;;;5.10;1.40;;;;;;;;;;5050461;28;20203;-66
2022/07/08 10:50:02;;;;;;;5.53;1.35;;;;;;;;;;5051084;28;20207;-66
2022/07/08 10:52:30;;;;;;;5.55;1.33;;;;;;;;;;5050250;28;20238;-66
2022/07/08 10:55:09;;;;;;;4.93;1.30;;;;;;;;;;5049958;28;20599;-65
2022/07/08 10:57:35;;;;;;;7.65;1.75;;;;;;;;;;5032987;28;20211;-65
2022/07/08 11:00:07;;;;;;;5.90;1.58;;;;;;;;;;5034513;28;20211;-66
2022/07/08 11:02:33;;;;;;;7.75;1.73;;;;;;;;;;5029846;28;20226;-65
2022/07/08 11:04:58;;;;;;;6.18;1.63;;;;;;;;;;5030814;28;20298;-65
2022/07/08 11:07:25;;;;;;;5.32;1.40;;;;;;;;;;5030290;28;20299;-66
2022/07/08 11:09:52;;;;;;;6.18;1.67;;;;;;;;;;5029752;28;20211;-66
2022/07/08 11:12:19;;;;;;;5.68;1.50;;;;;;;;;;5030892;28;20227;-66
2022/07/08 11:14:45;;;;;;;6.45;1.77;;;;;;;;;;5031100;28;20260;-65
2022/07/08 11:17:14;;;;;;;6.63;1.73;;;;;;;;;;5029556;28;20623;-65
2022/07/08 11:19:40;;;;;;;6.65;1.52;;;;;;;;;;5030533;28;20216;-65
2022/07/08 11:22:06;;;;;;;10.20;1.60;;;;;;;;;;5029391;28;20215;-66
2022/07/08 11:24:31;;;;;;;8.02;1.80;;;;;;;;;;5030593;28;20258;-66
2022/07/08 11:26:56;;;;;;;7.72;1.75;;;;;;;;;;5029751;28;20199;-65
2022/07/08 11:29:24;;;;;;;8.65;1.92;;;;;;;;;;5030710;28;20572;-65
2022/07/08 11:31:57;;;;;;;6.97;1.45;;;;;;;;;;5049195;28;20220;-66
2022/07/08 11:34:24;;;;;;;6.47;1.65;;;;;;;;;;5053625;28;20207;-65
2022/07/08 11:36:53;;;;;;;5.03;1.60;;;;;;;;;;5053357;28;20215;-65
2022/07/08 11:39:19;;;;;;;6.40;1.65;;;;;;;;;;5053918;28;20314;-65
2022/07/08 11:41:44;;;;;;;6.20;1.60;;;;;;;;;;5054460;28;20282;-65
2022/07/08 11:44:09;;;;;;;8.48;2.08;;;;;;;;;;5051655;28;20207;-66
2022/07/08 11:46:36;;;;;;;9.27;1.50;;;;;;;;;;5042169;28;20683;-65
2022/07/08 11:49:04;;;;;;;7.25;1.45;;;;;;;;;;5015708;28;20211;-66
2022/07/08 11:51:29;;;;;;;5.50;1.60;;;;;;;;;;5033193;28;20258;-66
2022/07/08 11:53:55;;;;;;;9.60;1.90;;;;;;;;;;5034097;28;20220;-65
2022/07/08 11:56:21;;;;;;;7.70;1.67;;;;;;;;;;5033608;28;20240;-66
2022/07/08 11:58:46;;;;;;;4.53;1.30;;;;;;;;;;5033433;28;20242;-65
2022/07/08 12:01:11;;;;;;;6.85;1.75;;;;;;;;;;5033134;28;20263;-65
2022/07/08 12:03:37;;;;;;;6.43;1.70;;;;;;;;;;5033563;28;20207;-65
2022/07/08 12:06:02;;;;;;;7.43;1.60;;;;;;;;;;5032328;28;20585;-66
2022/07/08 12:08:27;;;;;;;6.85;1.73;;;;;;;;;;5033712;28;20295;-65
2022/07/08 12:11:09;;;;;;;5.88;1.50;;;;;;;;;;5033710;28;20414;-65
2022/07/08 12:13:42;;;;;;;7.72;1.60;;;;;;;;;;5053414;28;20230;-66
2022/07/08 12:16:07;;;;;;;6.68;1.77;;;;;;;;;;5052997;28;20617;-65
2022/07/08 12:18:34;;;;;;;10.30;2.20;;;;;;;;;;5052210;28;20203;-65
2022/07/08 12:21:15;;;;;;;6.32;1.60;;;;;;;;;;5053399;28;20211;-66
2022/07/08 12:23:43;;;;;;;8.20;1.77;;;;;;;;;;5035427;28;20207;-65
2022/07/08 12:26:08;;;;;;;6.40;1.90;;;;;;;;;;5052186;28;20302;-66
2022/07/08 12:28:33;;;;;;;5.38;1.40;;;;;;;;;;5035195;28;20290;-66
2022/07/08 12:30:59;;;;;;;7.43;1.60;;;;;;;;;;5035020;28;20615;-65
2022/07/08 12:33:25;;;;;;;6.63;1.80;;;;;;;;;;5051424;28;20215;-65
2022/07/08 12:35:51;;;;;;;7.32;1.80;;;;;;;;;;5053468;28;20218;-65
2022/07/08 12:38:17;;;;;;;6.55;2.13;;;;;;;;;;5035119;28;20222;-66
2022/07/08 12:40:42;;;;;;;7.88;1.48;;;;;;;;;;5033541;28;20207;-66
2022/07/08 12:43:08;;;;;;;8.18;1.80;;;;;;;;;;5052537;28;20226;-65
2022/07/08 12:45:33;;;;;;;8.38;1.42;;;;;;;;;;5034968;28;20670;-65
2022/07/08 12:47:59;;;;;;;8.13;1.88;;;;;;;;;;5051966;28;20250;-65
2022/07/08 12:50:24;;;;;;;5.55;1.80;;;;;;;;;;5052404;28;20483;-66
2022/07/08 12:52:50;;;;;;;6.03;1.50;;;;;;;;;;5053006;28;20690;-65
2022/07/08 12:55:15;;;;;;;8.23;1.83;;;;;;;;;;5033923;28;20346;-65
2022/07/08 12:57:40;;;;;;;8.38;1.92;;;;;;;;;;5052571;28;20208;-65
2022/07/08 13:00:06;;;;;;;6.82;1.40;;;;;;;;;;5034889;28;20801;-66
2022/07/08 13:02:31;;;;;;;7.93;1.50;;;;;;;;;;5039921;28;20227;-65
2022/07/08 13:04:56;;;;;;;7.13;1.80;;;;;;;;;;5032735;28;20626;-65
2022/07/08 13:07:22;;;;;;;9.35;1.80;;;;;;;;;;5031712;28;20679;-63
2022/07/08 13:09:47;;;;;;;7.45;1.80;;;;;;;;;;5014719;28;20216;-63
2022/07/08 13:12:12;;;;;;;6.80;1.90;;;;;;;;;;5032112;28;20298;-64
2022/07/08 13:14:38;;;;;;;7.90;1.73;;;;;;;;;;5031458;28;20218;-64
2022/07/08 13:17:03;;;;;;;8.27;1.77;;;;;;;;;;5031865;28;20211;-64
2022/07/08 13:19:28;;;;;;;7.40;1.77;;;;;;;;;;5032040;28;20299;-63
2022/07/08 13:21:55;;;;;;;5.97;1.88;;;;;;;;;;5031913;28;20295;-65
2022/07/08 13:24:20;;;;;;;6.55;1.77;;;;;;;;;;5032108;28;20226;-65
2022/07/08 13:26:45;;;;;;;6.47;1.58;;;;;;;;;;5032441;28;20208;-66
2022/07/08 13:29:11;;;;;;;8.73;1.60;;;;;;;;;;5030780;28;20223;-65
2022/07/08 13:31:36;;;;;;;6.82;1.58;;;;;;;;;;5031972;28;20208;-65
2022/07/08 13:34:01;;;;;;;9.38;1.63;;;;;;;;;;5031576;28;20749;-66
2022/07/08 13:36:27;;;;;;;5.32;1.67;;;;;;;;;;5031517;28;20253;-66
2022/07/08 13:38:52;;;;;;;7.32;1.70;;;;;;;;;;5032178;28;20258;-65
2022/07/08 13:41:18;;;;;;;7.60;1.60;;;;;;;;;;5013832;28;20207;-65
2022/07/08 13:43:44;;;;;;;5.25;1.40;;;;;;;;;;5030945;28;20212;-65
2022/07/08 13:46:11;;;;;;;5.32;1.45;;;;;;;;;;5031273;28;20694;-65
2022/07/08 13:48:36;;;;;;;9.60;1.65;;;;;;;;;;5031754;28;20208;-65
2022/07/08 13:51:02;;;;;;;3.85;1.30;;;;;;;;;;5030786;28;20212;-66
2022/07/08 13:53:27;;;;;;;5.70;1.40;;;;;;;;;;5031673;28;20227;-65
2022/07/08 13:55:52;;;;;;;6.97;1.45;;;;;;;;;;5032095;28;20574;-65
2022/07/08 13:58:18;;;;;;;6.30;1.73;;;;;;;;;;5030347;28;20220;-65
2022/07/08 14:00:43;;;;;;;5.78;1.40;;;;;;;;;;5031560;28;20200;-65
2022/07/08 14:03:09;;;;;;;6.93;1.33;;;;;;;;;;5030891;28;20714;-65
2022/07/08 14:05:34;;;;;;;4.80;1.48;;;;;;;;;;5030808;28;20222;-65
2022/07/08 14:07:59;;;;;;;5.07;1.42;;;;;;;;;;5031762;28;20207;-65
2022/07/08 14:10:25;;;;;;;8.50;1.80;;;;;;;;;;5031223;28;20652;-65
2022/07/08 14:12:50;;;;;;;6.38;1.55;;;;;;;;;;5030625;28;20766;-66
2022/07/08 14:15:15;;;;;;;5.78;1.40;;;;;;;;;;5030846;28;20269;-65
2022/07/08 14:17:41;;;;;;;5.47;1.30;;;;;;;;;;5031055;28;20541;-65
2022/07/08 14:20:07;;;;;;;5.38;1.20;;;;;;;;;;5030290;28;20242;-65
2022/07/08 14:22:32;;;;;;;4.43;1.20;;;;;;;;;;5031714;28;20211;-65
2022/07/08 14:24:57;;;;;;;4.63;1.15;;;;;;;;;;5030546;28;20280;-65
2022/07/08 14:27:23;;;;;;;5.57;1.05;;;;;;;;;;5030903;28;20239;-65
2022/07/08 14:29:48;;;;;;;6.63;1.63;;;;;;;;;;5030963;28;20204;-65
2022/07/08 14:32:13;;;;;;;2.97;1.00;;;;;;;;;;5029919;28;20234;-65
2022/07/08 14:34:39;;;;;;;5.43;1.13;;;;;;;;;;5031019;28;20215;-65